Time;durP1;ratioP1;P1;durP2;ratioP2;P2;SDS_P1;SDS_P2;PMS_P1;PMS_P2;Temp;Humidity;BMP_temperature;BMP_pressure;BME280_temperature;BME280_humidity;BME280_pressure;Samples;Min_cycle;Max_cycle;Signal;HPM_P1;HPM_P2
2023/03/20 00:01:36;;;;;;;9.70;5.23;;;;;;;;;;5003118;28;20211;-71
2023/03/20 00:04:01;;;;;;;8.50;5.47;;;;;;;;;;5008589;28;20175;-71
2023/03/20 00:06:27;;;;;;;13.70;5.40;;;;;;;;;;5007089;28;20234;-71
2023/03/20 00:08:53;;;;;;;11.67;4.27;;;;;;;;;;5016699;28;20183;-71
2023/03/20 00:11:21;;;;;;;8.40;5.23;;;;;;;;;;5011085;28;20215;-72
2023/03/20 00:13:46;;;;;;;10.47;6.60;;;;;;;;;;5008373;28;20171;-72
2023/03/20 00:16:11;;;;;;;9.07;5.03;;;;;;;;;;5013480;28;20181;-72
2023/03/20 00:18:37;;;;;;;7.77;4.37;;;;;;;;;;5007592;28;20602;-71
2023/03/20 00:21:02;;;;;;;9.13;4.70;;;;;;;;;;5012296;28;20202;-72
2023/03/20 00:23:28;;;;;;;9.37;4.93;;;;;;;;;;5014659;28;20234;-71
2023/03/20 00:25:53;;;;;;;8.17;4.83;;;;;;;;;;5004007;28;20180;-72
2023/03/20 00:28:24;;;;;;;9.60;5.00;;;;;;;;;;5013406;28;20241;-70
2023/03/20 00:30:49;;;;;;;9.70;5.33;;;;;;;;;;5014769;28;20296;-69
2023/03/20 00:33:15;;;;;;;7.90;5.27;;;;;;;;;;5012391;28;20179;-70
2023/03/20 00:35:41;;;;;;;9.13;4.60;;;;;;;;;;5008366;28;20182;-72
2023/03/20 00:38:06;;;;;;;6.97;4.70;;;;;;;;;;5012422;28;20187;-72
2023/03/20 00:40:31;;;;;;;9.60;4.77;;;;;;;;;;5007601;28;20651;-72
2023/03/20 00:42:58;;;;;;;9.80;4.90;;;;;;;;;;5000969;28;20191;-73
2023/03/20 00:45:24;;;;;;;6.43;4.70;;;;;;;;;;5013920;28;20254;-72
2023/03/20 00:47:50;;;;;;;10.33;5.67;;;;;;;;;;5016327;28;20266;-70
2023/03/20 00:50:27;;;;;;;8.60;4.53;;;;;;;;;;5016678;28;20185;-72
2023/03/20 00:52:52;;;;;;;6.87;3.97;;;;;;;;;;5011490;28;20214;-71
2023/03/20 00:55:19;;;;;;;7.97;4.80;;;;;;;;;;5013622;28;20178;-72
2023/03/20 00:57:52;;;;;;;9.50;4.90;;;;;;;;;;5009444;28;20187;-72
2023/03/20 01:00:23;;;;;;;8.20;4.70;;;;;;;;;;5006345;28;20598;-72
2023/03/20 01:02:50;;;;;;;7.00;4.67;;;;;;;;;;5010465;28;20199;-72
2023/03/20 01:05:15;;;;;;;7.43;4.70;;;;;;;;;;5006046;28;20190;-69
2023/03/20 01:07:41;;;;;;;7.70;5.00;;;;;;;;;;5007066;28;20179;-72
2023/03/20 01:10:06;;;;;;;8.77;5.40;;;;;;;;;;5009199;28;20262;-71
2023/03/20 01:12:31;;;;;;;10.27;5.27;;;;;;;;;;5009406;28;20203;-72
2023/03/20 01:14:57;;;;;;;14.17;6.00;;;;;;;;;;5009067;28;20179;-72
2023/03/20 01:17:23;;;;;;;8.67;5.13;;;;;;;;;;4998941;28;20183;-72
2023/03/20 01:19:48;;;;;;;11.10;5.53;;;;;;;;;;5010841;28;20194;-71
2023/03/20 01:22:14;;;;;;;16.20;7.47;;;;;;;;;;5011839;28;20206;-72
2023/03/20 01:24:40;;;;;;;11.23;5.80;;;;;;;;;;5014173;28;20671;-72
2023/03/20 01:27:11;;;;;;;15.23;6.50;;;;;;;;;;5013681;28;20264;-72
2023/03/20 01:29:36;;;;;;;10.53;6.50;;;;;;;;;;5003712;28;20202;-73
2023/03/20 01:32:02;;;;;;;15.83;6.43;;;;;;;;;;5013246;28;20198;-72
2023/03/20 01:34:27;;;;;;;13.80;6.73;;;;;;;;;;5012653;28;20171;-72
2023/03/20 01:36:54;;;;;;;10.23;5.60;;;;;;;;;;5012359;28;20167;-72
2023/03/20 01:39:20;;;;;;;13.00;6.90;;;;;;;;;;5013907;28;20171;-72
2023/03/20 01:41:46;;;;;;;15.90;8.33;;;;;;;;;;5012011;28;20590;-72
2023/03/20 01:44:18;;;;;;;16.77;8.27;;;;;;;;;;5014782;28;20176;-72
2023/03/20 01:46:43;;;;;;;13.80;6.87;;;;;;;;;;5012249;28;20237;-72
2023/03/20 01:49:18;;;;;;;11.53;6.77;;;;;;;;;;5012937;28;20179;-72
2023/03/20 01:51:43;;;;;;;12.70;7.43;;;;;;;;;;5013129;28;20210;-72
2023/03/20 01:54:14;;;;;;;16.13;8.47;;;;;;;;;;5012108;28;20521;-72
2023/03/20 01:56:43;;;;;;;20.43;7.73;;;;;;;;;;5003872;28;20206;-72
2023/03/20 01:59:12;;;;;;;19.00;8.27;;;;;;;;;;5012305;28;20175;-72
2023/03/20 02:01:37;;;;;;;19.17;9.40;;;;;;;;;;5014923;28;20708;-72
2023/03/20 02:04:04;;;;;;;20.43;10.20;;;;;;;;;;5014270;28;20217;-71
2023/03/20 02:06:29;;;;;;;18.20;9.40;;;;;;;;;;5013282;28;20183;-71
2023/03/20 02:08:55;;;;;;;17.47;9.70;;;;;;;;;;5013796;28;20649;-71
2023/03/20 02:11:22;;;;;;;24.80;11.53;;;;;;;;;;5013518;28;20210;-71
2023/03/20 02:13:48;;;;;;;20.33;10.63;;;;;;;;;;5013662;28;20171;-71
2023/03/20 02:16:14;;;;;;;21.07;10.57;;;;;;;;;;5013774;28;20191;-71
2023/03/20 02:18:42;;;;;;;22.83;11.50;;;;;;;;;;5007786;28;20947;-71
2023/03/20 02:21:27;;;;;;;20.73;12.10;;;;;;;;;;5006888;28;20218;-71
2023/03/20 02:24:10;;;;;;;21.20;11.47;;;;;;;;;;5014240;28;20179;-71
2023/03/20 02:26:54;;;;;;;19.80;10.93;;;;;;;;;;5011976;28;20183;-71
2023/03/20 02:29:22;;;;;;;24.73;12.63;;;;;;;;;;5010338;28;20660;-72
2023/03/20 02:32:06;;;;;;;22.13;11.33;;;;;;;;;;5003233;28;20219;-72
2023/03/20 02:34:31;;;;;;;22.40;11.97;;;;;;;;;;5007715;28;20191;-72
2023/03/20 02:36:59;;;;;;;21.90;12.53;;;;;;;;;;5010272;28;20186;-70
2023/03/20 02:39:30;;;;;;;19.87;12.00;;;;;;;;;;5005015;28;20188;-72
2023/03/20 02:42:04;;;;;;;23.03;13.30;;;;;;;;;;5006499;28;20688;-72
2023/03/20 02:44:29;;;;;;;24.57;13.50;;;;;;;;;;5007065;28;20183;-72
2023/03/20 02:46:57;;;;;;;21.57;11.50;;;;;;;;;;5006924;28;20185;-71
2023/03/20 02:49:25;;;;;;;27.43;11.67;;;;;;;;;;5004748;28;20179;-73
2023/03/20 02:52:03;;;;;;;21.37;12.70;;;;;;;;;;5005805;28;20207;-72
2023/03/20 02:54:28;;;;;;;22.30;12.70;;;;;;;;;;5009199;28;20182;-72
2023/03/20 02:56:53;;;;;;;23.17;12.13;;;;;;;;;;5003006;28;20195;-72
2023/03/20 02:59:25;;;;;;;27.43;12.60;;;;;;;;;;5009027;28;20186;-71
2023/03/20 03:01:52;;;;;;;27.60;12.57;;;;;;;;;;5011371;28;20207;-71
2023/03/20 03:04:19;;;;;;;28.97;13.27;;;;;;;;;;5010491;28;20543;-72
2023/03/20 03:06:46;;;;;;;24.40;13.03;;;;;;;;;;5011741;28;20210;-72
2023/03/20 03:09:13;;;;;;;23.67;12.83;;;;;;;;;;5011578;28;20552;-73
2023/03/20 03:11:42;;;;;;;25.77;13.20;;;;;;;;;;5011893;28;20211;-72
2023/03/20 03:14:13;;;;;;;25.83;13.07;;;;;;;;;;5012789;28;20171;-70
2023/03/20 03:16:39;;;;;;;25.90;12.43;;;;;;;;;;5012647;28;20174;-70
2023/03/20 03:19:10;;;;;;;23.20;12.67;;;;;;;;;;5008770;28;20175;-70
2023/03/20 03:21:38;;;;;;;20.93;12.07;;;;;;;;;;4994217;28;20203;-70
2023/03/20 03:24:03;;;;;;;26.50;12.67;;;;;;;;;;5007540;28;20179;-70
2023/03/20 03:26:35;;;;;;;27.53;11.47;;;;;;;;;;5008385;28;20176;-72
2023/03/20 03:29:02;;;;;;;23.23;12.80;;;;;;;;;;5013028;28;20262;-72
2023/03/20 03:31:28;;;;;;;25.10;10.60;;;;;;;;;;5008585;28;20685;-72
2023/03/20 03:33:55;;;;;;;20.37;11.47;;;;;;;;;;5011634;28;20174;-72
2023/03/20 03:36:25;;;;;;;22.27;11.77;;;;;;;;;;5006451;28;20180;-72
2023/03/20 03:38:59;;;;;;;21.87;13.17;;;;;;;;;;4996115;28;20202;-72
2023/03/20 03:41:27;;;;;;;24.20;11.70;;;;;;;;;;5004955;28;20195;-71
2023/03/20 03:44:15;;;;;;;20.67;12.40;;;;;;;;;;5006114;28;20290;-71
2023/03/20 03:46:46;;;;;;;19.10;11.00;;;;;;;;;;5003769;28;20183;-72
2023/03/20 03:49:15;;;;;;;20.20;11.57;;;;;;;;;;5010060;28;20262;-72
2023/03/20 03:51:41;;;;;;;22.67;11.23;;;;;;;;;;5001172;28;20256;-72
2023/03/20 03:54:33;;;;;;;20.10;11.37;;;;;;;;;;5001060;28;20196;-71
2023/03/20 03:57:00;;;;;;;21.63;11.43;;;;;;;;;;5000878;28;20199;-71
2023/03/20 03:59:29;;;;;;;21.47;12.00;;;;;;;;;;5000650;28;20545;-72
2023/03/20 04:01:55;;;;;;;22.97;11.03;;;;;;;;;;4999045;28;20203;-72
2023/03/20 04:04:20;;;;;;;22.53;11.47;;;;;;;;;;5006193;28;20186;-71
2023/03/20 04:06:46;;;;;;;20.67;10.33;;;;;;;;;;5010758;28;20171;-71
2023/03/20 04:09:11;;;;;;;18.40;11.20;;;;;;;;;;5009808;28;20179;-71
2023/03/20 04:11:36;;;;;;;19.37;11.63;;;;;;;;;;5011506;28;20206;-72
2023/03/20 04:14:02;;;;;;;20.23;12.47;;;;;;;;;;5012037;28;20178;-71
2023/03/20 04:16:27;;;;;;;21.03;12.03;;;;;;;;;;5012240;28;20655;-71
2023/03/20 04:18:52;;;;;;;22.47;12.57;;;;;;;;;;5012280;28;20216;-71
2023/03/20 04:21:18;;;;;;;21.33;12.83;;;;;;;;;;4997347;28;20209;-71
2023/03/20 04:23:43;;;;;;;22.10;12.80;;;;;;;;;;5009446;28;20226;-71
2023/03/20 04:26:08;;;;;;;20.27;12.77;;;;;;;;;;5010354;28;20198;-72
2023/03/20 04:28:34;;;;;;;18.80;12.47;;;;;;;;;;5007711;28;20190;-70
2023/03/20 04:31:00;;;;;;;21.30;12.63;;;;;;;;;;5003525;28;20215;-72
2023/03/20 04:33:26;;;;;;;22.60;13.17;;;;;;;;;;5008459;28;20183;-70
2023/03/20 04:35:51;;;;;;;24.57;14.37;;;;;;;;;;5006406;28;20184;-70
2023/03/20 04:38:17;;;;;;;19.30;13.53;;;;;;;;;;5011283;28;20527;-71
2023/03/20 04:40:43;;;;;;;30.23;14.07;;;;;;;;;;5004473;28;20265;-71
2023/03/20 04:43:08;;;;;;;22.80;13.20;;;;;;;;;;5001401;28;20570;-71
2023/03/20 04:45:33;;;;;;;19.70;13.43;;;;;;;;;;5008403;28;20201;-71
2023/03/20 04:47:58;;;;;;;21.73;13.53;;;;;;;;;;5009529;28;20183;-71
2023/03/20 04:50:23;;;;;;;24.17;15.03;;;;;;;;;;5003910;28;20183;-72
2023/03/20 04:52:49;;;;;;;28.77;13.70;;;;;;;;;;5003731;28;20618;-71
2023/03/20 04:55:15;;;;;;;21.10;13.53;;;;;;;;;;5012559;28;20175;-72
2023/03/20 04:57:40;;;;;;;21.90;14.47;;;;;;;;;;5012058;28;20566;-71
2023/03/20 05:00:06;;;;;;;18.53;12.40;;;;;;;;;;5011696;28;20175;-71
2023/03/20 05:02:31;;;;;;;23.20;13.23;;;;;;;;;;5007047;28;20217;-71
2023/03/20 05:04:56;;;;;;;24.30;14.57;;;;;;;;;;5009313;28;20294;-71
2023/03/20 05:07:21;;;;;;;21.00;13.53;;;;;;;;;;5011987;28;20265;-72
2023/03/20 05:09:47;;;;;;;24.20;13.90;;;;;;;;;;5013093;28;20183;-72
2023/03/20 05:12:12;;;;;;;21.77;13.23;;;;;;;;;;5011335;28;20210;-71
2023/03/20 05:14:37;;;;;;;22.43;13.47;;;;;;;;;;5004886;28;20179;-71
2023/03/20 05:17:03;;;;;;;25.13;15.27;;;;;;;;;;5010896;28;20694;-71
2023/03/20 05:19:28;;;;;;;22.57;13.77;;;;;;;;;;5010999;28;20210;-71
2023/03/20 05:21:53;;;;;;;20.53;13.67;;;;;;;;;;5012562;28;20209;-71
2023/03/20 05:24:18;;;;;;;22.27;13.33;;;;;;;;;;5008191;28;20186;-71
2023/03/20 05:26:44;;;;;;;22.23;13.80;;;;;;;;;;5007305;28;20183;-71
2023/03/20 05:29:09;;;;;;;21.43;14.67;;;;;;;;;;5006899;28;20191;-71
2023/03/20 05:31:34;;;;;;;20.20;13.43;;;;;;;;;;5007340;28;20704;-71
2023/03/20 05:33:59;;;;;;;25.37;13.37;;;;;;;;;;5002685;28;20623;-71
2023/03/20 05:36:25;;;;;;;23.63;13.63;;;;;;;;;;5013303;28;20171;-71
2023/03/20 05:38:50;;;;;;;21.77;12.80;;;;;;;;;;5007525;28;20179;-71
2023/03/20 05:41:15;;;;;;;23.27;14.90;;;;;;;;;;5007125;28;20203;-71
2023/03/20 05:43:40;;;;;;;20.97;12.87;;;;;;;;;;5001733;28;20616;-71
2023/03/20 05:46:06;;;;;;;26.13;14.20;;;;;;;;;;5002271;28;20192;-71
2023/03/20 05:48:31;;;;;;;22.00;13.37;;;;;;;;;;5011947;28;20191;-71
2023/03/20 05:50:56;;;;;;;21.00;12.30;;;;;;;;;;5005047;28;20211;-71
2023/03/20 05:53:21;;;;;;;19.93;12.87;;;;;;;;;;5006024;28;20179;-71
2023/03/20 05:55:46;;;;;;;22.30;12.47;;;;;;;;;;4998976;28;20186;-71
2023/03/20 05:58:12;;;;;;;21.50;12.87;;;;;;;;;;5005403;28;20226;-71
2023/03/20 06:00:38;;;;;;;23.30;13.20;;;;;;;;;;5011262;28;20759;-71
2023/03/20 06:03:05;;;;;;;23.47;13.30;;;;;;;;;;5012936;28;20663;-70
2023/03/20 06:05:30;;;;;;;19.87;12.53;;;;;;;;;;5009195;28;20178;-71
2023/03/20 06:07:55;;;;;;;21.97;12.57;;;;;;;;;;5012150;28;20170;-71
2023/03/20 06:10:21;;;;;;;20.60;12.37;;;;;;;;;;5007318;28;20590;-71
2023/03/20 06:12:46;;;;;;;19.33;11.93;;;;;;;;;;5011743;28;20282;-71
2023/03/20 06:15:12;;;;;;;20.33;12.47;;;;;;;;;;5010828;28;20167;-71
2023/03/20 06:17:37;;;;;;;17.67;11.97;;;;;;;;;;5011363;28;20717;-71
2023/03/20 06:20:03;;;;;;;25.27;12.57;;;;;;;;;;5009946;28;20197;-70
2023/03/20 06:22:28;;;;;;;23.23;12.40;;;;;;;;;;5006777;28;20225;-70
2023/03/20 06:24:53;;;;;;;20.73;12.97;;;;;;;;;;5005739;28;20179;-71
2023/03/20 06:27:19;;;;;;;23.17;11.97;;;;;;;;;;5011990;28;20495;-72
2023/03/20 06:29:45;;;;;;;21.67;12.47;;;;;;;;;;5009127;28;20294;-71
2023/03/20 06:32:11;;;;;;;22.97;12.13;;;;;;;;;;5011991;28;20245;-71
2023/03/20 06:34:36;;;;;;;23.20;12.77;;;;;;;;;;5001854;28;20607;-71
2023/03/20 06:37:01;;;;;;;17.67;12.27;;;;;;;;;;5011445;28;20179;-72
2023/03/20 06:39:27;;;;;;;21.43;13.03;;;;;;;;;;5001291;28;20217;-71
2023/03/20 06:41:52;;;;;;;20.20;12.00;;;;;;;;;;5007335;28;20223;-72
2023/03/20 06:44:18;;;;;;;26.63;13.63;;;;;;;;;;5002353;28;20186;-72
2023/03/20 06:46:43;;;;;;;21.83;12.17;;;;;;;;;;5010953;28;20179;-71
2023/03/20 06:49:08;;;;;;;18.13;12.13;;;;;;;;;;5004277;28;20187;-71
2023/03/20 06:51:33;;;;;;;19.67;11.30;;;;;;;;;;5008037;28;20207;-70
2023/03/20 06:53:58;;;;;;;17.73;11.40;;;;;;;;;;5012139;28;20254;-73
2023/03/20 06:56:24;;;;;;;21.77;11.00;;;;;;;;;;5010962;28;20220;-72
2023/03/20 06:58:49;;;;;;;23.00;11.30;;;;;;;;;;5009304;28;20179;-72
2023/03/20 07:01:18;;;;;;;20.20;12.73;;;;;;;;;;4999630;28;20250;-70
2023/03/20 07:03:44;;;;;;;18.67;10.53;;;;;;;;;;5000743;28;20566;-70
2023/03/20 07:06:11;;;;;;;18.17;11.63;;;;;;;;;;5003445;28;20179;-70
2023/03/20 07:08:36;;;;;;;20.27;10.63;;;;;;;;;;5010101;28;20186;-72
2023/03/20 07:11:03;;;;;;;19.30;10.30;;;;;;;;;;5011266;28;20207;-72
2023/03/20 07:13:28;;;;;;;16.80;10.80;;;;;;;;;;5009351;28;20199;-73
2023/03/20 07:15:53;;;;;;;22.60;11.60;;;;;;;;;;5001076;28;20192;-72
2023/03/20 07:18:19;;;;;;;16.50;10.30;;;;;;;;;;5000383;28;20627;-72
2023/03/20 07:20:44;;;;;;;18.30;10.17;;;;;;;;;;5002981;28;20179;-72
2023/03/20 07:23:10;;;;;;;27.37;13.03;;;;;;;;;;5010833;28;20187;-72
2023/03/20 07:25:35;;;;;;;15.83;9.40;;;;;;;;;;5004556;28;20186;-72
2023/03/20 07:28:01;;;;;;;16.20;9.23;;;;;;;;;;5001292;28;20211;-72
2023/03/20 07:30:26;;;;;;;17.40;8.80;;;;;;;;;;4994171;28;20183;-71
2023/03/20 07:32:52;;;;;;;15.83;9.27;;;;;;;;;;5003108;28;20266;-71
2023/03/20 07:35:17;;;;;;;20.10;10.00;;;;;;;;;;5002281;28;20546;-72
2023/03/20 07:37:42;;;;;;;19.87;9.40;;;;;;;;;;5008076;28;20178;-72
2023/03/20 07:40:08;;;;;;;16.90;8.73;;;;;;;;;;5004231;28;20243;-70
2023/03/20 07:42:33;;;;;;;18.17;9.20;;;;;;;;;;5008533;28;20261;-72
2023/03/20 07:44:58;;;;;;;16.53;9.03;;;;;;;;;;5009078;28;20230;-70
2023/03/20 07:47:23;;;;;;;9.73;7.60;;;;;;;;;;5008902;28;20208;-72
2023/03/20 07:49:48;;;;;;;19.80;8.37;;;;;;;;;;5009872;28;20191;-72
2023/03/20 07:52:14;;;;;;;13.97;8.03;;;;;;;;;;5003223;28;20246;-72
2023/03/20 07:54:39;;;;;;;12.43;8.53;;;;;;;;;;5006197;28;20574;-72
2023/03/20 07:57:04;;;;;;;17.13;7.80;;;;;;;;;;5008434;28;20182;-71
2023/03/20 07:59:30;;;;;;;13.37;7.33;;;;;;;;;;5010294;28;20189;-72
2023/03/20 08:01:55;;;;;;;14.73;7.60;;;;;;;;;;4993160;28;20215;-72
2023/03/20 08:04:21;;;;;;;15.60;8.23;;;;;;;;;;4999790;28;20195;-72
2023/03/20 08:06:47;;;;;;;12.90;7.40;;;;;;;;;;5002902;28;20183;-70
2023/03/20 08:09:12;;;;;;;13.00;7.77;;;;;;;;;;4999525;28;20242;-72
2023/03/20 08:11:37;;;;;;;11.70;7.57;;;;;;;;;;5001753;28;20652;-72
2023/03/20 08:14:03;;;;;;;15.53;7.63;;;;;;;;;;5011217;28;20221;-72
2023/03/20 08:16:28;;;;;;;18.10;8.43;;;;;;;;;;5003855;28;20172;-72
2023/03/20 08:18:57;;;;;;;16.20;7.40;;;;;;;;;;5003993;28;20314;-72
2023/03/20 08:21:22;;;;;;;13.77;8.10;;;;;;;;;;5005097;28;20201;-72
2023/03/20 08:23:47;;;;;;;11.17;7.63;;;;;;;;;;5020723;23;20226;-68
2023/03/20 08:26:12;;;;;;;11.73;7.27;;;;;;;;;;5005460;28;20584;-69
2023/03/20 08:28:38;;;;;;;12.63;6.83;;;;;;;;;;5011200;28;20179;-69
2023/03/20 08:31:06;;;;;;;17.03;7.20;;;;;;;;;;5007844;28;20586;-68
2023/03/20 08:33:32;;;;;;;14.43;7.67;;;;;;;;;;4993352;28;20255;-67
2023/03/20 08:35:57;;;;;;;15.30;7.43;;;;;;;;;;4981484;28;20211;-68
2023/03/20 08:38:22;;;;;;;11.63;6.23;;;;;;;;;;4992382;28;20258;-68
2023/03/20 08:40:47;;;;;;;14.73;7.43;;;;;;;;;;4992891;28;20199;-68
2023/03/20 08:43:13;;;;;;;14.03;7.57;;;;;;;;;;4980212;28;20629;-68
2023/03/20 08:45:38;;;;;;;14.10;7.87;;;;;;;;;;4988230;28;20200;-68
2023/03/20 08:48:03;;;;;;;16.10;7.87;;;;;;;;;;4993439;28;20192;-68
2023/03/20 08:50:29;;;;;;;15.77;7.57;;;;;;;;;;4985428;28;20234;-68
2023/03/20 08:52:54;;;;;;;14.07;8.13;;;;;;;;;;4985229;28;20203;-68
2023/03/20 08:55:19;;;;;;;17.43;9.60;;;;;;;;;;4980720;28;20164;-68
2023/03/20 08:57:45;;;;;;;12.33;7.80;;;;;;;;;;4985098;28;20180;-68
2023/03/20 09:00:11;;;;;;;11.43;7.97;;;;;;;;;;4984759;28;20629;-68
2023/03/20 09:02:37;;;;;;;15.27;7.67;;;;;;;;;;4990761;28;20242;-68
2023/03/20 09:05:02;;;;;;;15.53;8.27;;;;;;;;;;4982099;28;20212;-68
2023/03/20 09:07:27;;;;;;;15.10;7.70;;;;;;;;;;4979555;28;20187;-69
2023/03/20 09:09:52;;;;;;;12.00;8.33;;;;;;;;;;4982430;28;20182;-69
2023/03/20 09:12:18;;;;;;;11.97;7.03;;;;;;;;;;4992836;28;20262;-68
2023/03/20 09:14:43;;;;;;;16.67;7.20;;;;;;;;;;4981183;28;20207;-68
2023/03/20 09:17:08;;;;;;;14.23;7.47;;;;;;;;;;4983148;28;20188;-69
2023/03/20 09:19:33;;;;;;;17.70;8.90;;;;;;;;;;4988958;28;20187;-69
2023/03/20 09:21:59;;;;;;;12.13;8.20;;;;;;;;;;4985134;28;20183;-69
2023/03/20 09:24:25;;;;;;;18.53;8.20;;;;;;;;;;4993121;28;20211;-68
2023/03/20 09:26:51;;;;;;;15.33;8.27;;;;;;;;;;4989051;28;20184;-69
2023/03/20 09:29:16;;;;;;;13.47;7.30;;;;;;;;;;4990154;28;20367;-68
2023/03/20 09:31:41;;;;;;;14.33;7.27;;;;;;;;;;4983818;28;20204;-69
2023/03/20 09:34:06;;;;;;;14.63;7.80;;;;;;;;;;4985056;28;20257;-68
2023/03/20 09:36:32;;;;;;;14.77;7.60;;;;;;;;;;4988740;28;20167;-69
2023/03/20 09:38:57;;;;;;;12.87;7.10;;;;;;;;;;4984000;28;20175;-68
2023/03/20 09:41:23;;;;;;;14.37;7.57;;;;;;;;;;4989678;28;20176;-68
2023/03/20 09:44:06;;;;;;;11.30;6.20;;;;;;;;;;4990766;28;20207;-69
2023/03/20 09:46:32;;;;;;;14.73;6.53;;;;;;;;;;4985984;28;20183;-68
2023/03/20 09:49:04;;;;;;;12.80;5.83;;;;;;;;;;4985980;28;20214;-68
2023/03/20 09:51:51;;;;;;;17.70;6.43;;;;;;;;;;4995270;28;20215;-69
2023/03/20 09:54:21;;;;;;;14.80;7.03;;;;;;;;;;4984807;28;20203;-69
2023/03/20 09:56:47;;;;;;;15.50;7.20;;;;;;;;;;4987353;28;20246;-68
2023/03/20 09:59:14;;;;;;;13.40;6.37;;;;;;;;;;4986030;28;20183;-68
2023/03/20 10:01:54;;;;;;;15.13;6.23;;;;;;;;;;4992599;28;20184;-68
2023/03/20 10:04:20;;;;;;;8.93;5.90;;;;;;;;;;4988692;28;20203;-69
2023/03/20 10:06:45;;;;;;;13.20;6.30;;;;;;;;;;4991879;28;20187;-69
2023/03/20 10:09:14;;;;;;;12.70;6.57;;;;;;;;;;4982412;28;20171;-69
2023/03/20 10:11:45;;;;;;;11.17;6.10;;;;;;;;;;4985010;28;20210;-68
2023/03/20 10:14:42;;;;;;;10.40;6.80;;;;;;;;;;4986123;28;20195;-68
2023/03/20 10:17:14;;;;;;;11.60;5.83;;;;;;;;;;4964619;28;20248;-69
2023/03/20 10:19:44;;;;;;;15.20;6.67;;;;;;;;;;4988243;28;20211;-70
2023/03/20 10:22:21;;;;;;;13.80;6.43;;;;;;;;;;4985934;28;20176;-68
2023/03/20 10:24:55;;;;;;;14.73;6.47;;;;;;;;;;4992937;28;20180;-68
2023/03/20 10:27:22;;;;;;;13.07;8.00;;;;;;;;;;4986804;28;20175;-69
2023/03/20 10:29:51;;;;;;;12.90;7.60;;;;;;;;;;4993994;28;20200;-68
2023/03/20 10:32:32;;;;;;;11.00;7.03;;;;;;;;;;4987656;28;20202;-69
2023/03/20 10:34:57;;;;;;;15.60;9.30;;;;;;;;;;4983512;28;20179;-68
2023/03/20 10:37:37;;;;;;;14.00;8.60;;;;;;;;;;4982730;28;20637;-68
2023/03/20 10:40:04;;;;;;;15.70;8.27;;;;;;;;;;4984988;28;20168;-68
2023/03/20 10:42:32;;;;;;;11.33;8.27;;;;;;;;;;4984367;28;20204;-68
2023/03/20 10:45:00;;;;;;;15.37;8.30;;;;;;;;;;4985504;28;20191;-68
2023/03/20 10:47:29;;;;;;;14.23;8.60;;;;;;;;;;4991008;28;20183;-68
2023/03/20 10:49:57;;;;;;;17.43;9.73;;;;;;;;;;4988690;28;20180;-69
2023/03/20 10:52:25;;;;;;;18.17;10.27;;;;;;;;;;4991851;28;20214;-69
2023/03/20 10:54:56;;;;;;;16.67;10.07;;;;;;;;;;4985589;28;20179;-68
2023/03/20 10:57:22;;;;;;;17.40;10.97;;;;;;;;;;4986927;28;20572;-69
2023/03/20 10:59:49;;;;;;;19.97;12.27;;;;;;;;;;4984063;28;20180;-68
2023/03/20 11:02:15;;;;;;;19.37;10.23;;;;;;;;;;4982870;28;20188;-69
2023/03/20 11:04:41;;;;;;;15.17;10.57;;;;;;;;;;4988520;28;20183;-68
2023/03/20 11:07:09;;;;;;;18.63;11.13;;;;;;;;;;4990199;28;20179;-68
2023/03/20 11:09:35;;;;;;;19.80;12.53;;;;;;;;;;4984806;28;20291;-68
2023/03/20 11:12:01;;;;;;;16.73;11.03;;;;;;;;;;4984080;28;20294;-68
2023/03/20 11:14:30;;;;;;;17.03;11.53;;;;;;;;;;4980479;28;20206;-70
2023/03/20 11:16:59;;;;;;;19.90;12.23;;;;;;;;;;4990641;28;20215;-68
2023/03/20 11:19:24;;;;;;;17.40;12.17;;;;;;;;;;4991855;28;20174;-69
2023/03/20 11:21:55;;;;;;;17.43;11.00;;;;;;;;;;4984121;28;20176;-69
2023/03/20 11:24:25;;;;;;;17.60;11.23;;;;;;;;;;4984143;28;20795;-69
2023/03/20 11:26:50;;;;;;;19.13;11.97;;;;;;;;;;4983736;28;20292;-69
2023/03/20 11:29:26;;;;;;;21.50;13.23;;;;;;;;;;4983705;28;20381;-69
2023/03/20 11:31:51;;;;;;;14.67;10.47;;;;;;;;;;4982408;28;20570;-69
2023/03/20 11:34:16;;;;;;;19.37;11.77;;;;;;;;;;4990868;28;20223;-69
2023/03/20 11:37:00;;;;;;;21.77;12.10;;;;;;;;;;4986913;28;20583;-69
2023/03/20 11:39:28;;;;;;;18.77;12.33;;;;;;;;;;4988515;28;20302;-68
2023/03/20 11:41:54;;;;;;;19.43;12.97;;;;;;;;;;4986509;28;20187;-69
2023/03/20 11:44:19;;;;;;;23.00;12.30;;;;;;;;;;4986370;28;20199;-69
2023/03/20 11:46:46;;;;;;;21.03;12.67;;;;;;;;;;4986293;28;20664;-68
2023/03/20 11:49:19;;;;;;;15.50;11.63;;;;;;;;;;4980902;28;20184;-69
2023/03/20 11:51:44;;;;;;;18.63;12.07;;;;;;;;;;4983217;28;20199;-69
2023/03/20 11:54:14;;;;;;;19.43;10.87;;;;;;;;;;4983421;28;20215;-69
2023/03/20 11:56:49;;;;;;;22.43;11.73;;;;;;;;;;4982295;28;20555;-67
2023/03/20 11:59:18;;;;;;;22.93;12.87;;;;;;;;;;4985803;28;20637;-67
2023/03/20 12:01:47;;;;;;;23.50;12.50;;;;;;;;;;4987416;28;20184;-67
2023/03/20 12:04:16;;;;;;;19.87;12.03;;;;;;;;;;4983867;28;20279;-68
2023/03/20 12:06:45;;;;;;;17.73;11.37;;;;;;;;;;4987819;28;20179;-68
2023/03/20 12:09:14;;;;;;;18.97;10.73;;;;;;;;;;4984927;28;20192;-68
2023/03/20 12:11:54;;;;;;;21.47;11.17;;;;;;;;;;4989292;28;20207;-69
2023/03/20 12:14:22;;;;;;;22.33;11.73;;;;;;;;;;4981984;28;20205;-68
2023/03/20 12:16:50;;;;;;;19.87;11.03;;;;;;;;;;4985885;28;20175;-69
2023/03/20 12:19:17;;;;;;;24.73;10.63;;;;;;;;;;4987090;28;20223;-68
2023/03/20 12:21:51;;;;;;;16.83;10.30;;;;;;;;;;4985414;28;20177;-68
2023/03/20 12:24:22;;;;;;;19.83;10.60;;;;;;;;;;4988555;28;20215;-68
2023/03/20 12:26:53;;;;;;;17.77;10.73;;;;;;;;;;4983233;28;20184;-69
2023/03/20 12:29:21;;;;;;;13.50;9.27;;;;;;;;;;4984452;28;20180;-69
2023/03/20 12:32:02;;;;;;;18.17;10.80;;;;;;;;;;4979328;28;20224;-70
2023/03/20 12:34:30;;;;;;;19.17;11.13;;;;;;;;;;4981876;28;20175;-68
2023/03/20 12:36:58;;;;;;;21.83;11.43;;;;;;;;;;4985012;28;20176;-70
2023/03/20 12:39:27;;;;;;;17.50;12.77;;;;;;;;;;4980983;28;20646;-70
2023/03/20 12:42:08;;;;;;;21.43;10.50;;;;;;;;;;4978618;28;20211;-69
2023/03/20 12:44:36;;;;;;;18.30;11.57;;;;;;;;;;4985037;28;20188;-68
2023/03/20 12:47:12;;;;;;;18.23;11.43;;;;;;;;;;4986950;28;20187;-69
2023/03/20 12:49:52;;;;;;;14.80;10.17;;;;;;;;;;4990635;28;20211;-70
2023/03/20 12:52:30;;;;;;;18.53;10.77;;;;;;;;;;4985819;28;20206;-69
2023/03/20 12:55:08;;;;;;;20.57;11.07;;;;;;;;;;4980019;28;20254;-69
2023/03/20 12:57:36;;;;;;;16.27;10.67;;;;;;;;;;4983265;28;20231;-69
2023/03/20 13:00:02;;;;;;;23.87;10.97;;;;;;;;;;4984787;28;20179;-69
2023/03/20 13:02:32;;;;;;;19.20;11.27;;;;;;;;;;4978472;28;20208;-68
2023/03/20 13:05:13;;;;;;;22.50;12.73;;;;;;;;;;4980563;28;20275;-69
2023/03/20 13:07:38;;;;;;;16.73;10.57;;;;;;;;;;4982419;28;20187;-68
2023/03/20 13:10:16;;;;;;;16.53;11.37;;;;;;;;;;4993880;28;20192;-69
2023/03/20 13:12:41;;;;;;;19.17;11.53;;;;;;;;;;4992637;28;20217;-69
2023/03/20 13:15:18;;;;;;;19.70;11.40;;;;;;;;;;4986732;28;20263;-68
2023/03/20 13:17:55;;;;;;;20.87;12.60;;;;;;;;;;4992398;28;20175;-68
2023/03/20 13:20:35;;;;;;;20.10;12.37;;;;;;;;;;4990023;28;20572;-70
2023/03/20 13:23:03;;;;;;;22.70;12.17;;;;;;;;;;4993265;28;20293;-69
2023/03/20 13:25:34;;;;;;;21.33;11.07;;;;;;;;;;4989074;28;20171;-68
2023/03/20 13:28:22;;;;;;;21.77;11.70;;;;;;;;;;4983877;28;20180;-68
2023/03/20 13:30:50;;;;;;;23.93;12.20;;;;;;;;;;4982865;28;20226;-68
2023/03/20 13:33:33;;;;;;;18.67;13.20;;;;;;;;;;4981495;28;20188;-68
2023/03/20 13:36:25;;;;;;;22.20;12.27;;;;;;;;;;4985517;28;20230;-69
2023/03/20 13:39:06;;;;;;;17.90;12.23;;;;;;;;;;4973864;28;20202;-68
2023/03/20 13:41:33;;;;;;;21.70;12.33;;;;;;;;;;4985408;28;20180;-68
2023/03/20 13:44:00;;;;;;;19.57;11.83;;;;;;;;;;4992958;28;20214;-68
2023/03/20 13:46:30;;;;;;;20.73;13.33;;;;;;;;;;4992383;28;20647;-68
2023/03/20 13:48:57;;;;;;;17.47;12.43;;;;;;;;;;4994424;28;20188;-69
2023/03/20 13:51:34;;;;;;;23.97;14.50;;;;;;;;;;4993503;28;20228;-69
2023/03/20 13:54:06;;;;;;;13.30;10.53;;;;;;;;;;4993013;28;20220;-69
2023/03/20 13:56:50;;;;;;;22.77;12.17;;;;;;;;;;4992767;28;20179;-69
2023/03/20 13:59:34;;;;;;;17.37;11.80;;;;;;;;;;4981378;28;21632;-68
2023/03/20 14:02:17;;;;;;;23.03;11.80;;;;;;;;;;4986226;28;20271;-68
2023/03/20 14:04:43;;;;;;;28.03;13.47;;;;;;;;;;4987785;28;20179;-68
2023/03/20 14:07:27;;;;;;;16.37;11.43;;;;;;;;;;4987545;28;20180;-69
2023/03/20 14:09:52;;;;;;;23.30;11.40;;;;;;;;;;4980070;28;20181;-69
2023/03/20 14:12:18;;;;;;;17.07;12.13;;;;;;;;;;4984230;28;20219;-68
2023/03/20 14:14:57;;;;;;;16.97;11.00;;;;;;;;;;4990957;28;20600;-68
2023/03/20 14:17:26;;;;;;;17.17;10.83;;;;;;;;;;4987909;28;20180;-68
2023/03/20 14:19:52;;;;;;;17.97;12.40;;;;;;;;;;4979309;28;20180;-69
2023/03/20 14:25:07;;;;;;;26.00;12.40;;;;;;;;;;4987911;28;20603;-73
2023/03/20 14:27:52;;;;;;;23.63;12.07;;;;;;;;;;4988843;28;20179;-73
2023/03/20 14:30:30;;;;;;;18.53;12.20;;;;;;;;;;4994555;28;20179;-73
2023/03/20 14:33:04;;;;;;;20.43;13.47;;;;;;;;;;4999287;28;20270;-73